sensor_id;sensor_type;location;lat;lon;timestamp;P1;durP1;ratioP1;P2;durP2;ratioP2
17866;SDS011;9059;49.934;8.650;2023-07-29T00:07:42;2.47;;;1.10;;
17866;SDS011;9059;49.934;8.650;2023-07-29T00:17:46;3.60;;;1.35;;
17866;SDS011;9059;49.934;8.650;2023-07-29T00:27:49;1.63;;;0.80;;
17866;SDS011;9059;49.934;8.650;2023-07-29T00:37:53;1.27;;;0.93;;
17866;SDS011;9059;49.934;8.650;2023-07-29T00:47:56;4.28;;;0.85;;
17866;SDS011;9059;49.934;8.650;2023-07-29T00:58:01;3.80;;;1.00;;
17866;SDS011;9059;49.934;8.650;2023-07-29T01:08:05;1.13;;;0.70;;
17866;SDS011;9059;49.934;8.650;2023-07-29T01:18:14;1.30;;;0.73;;
17866;SDS011;9059;49.934;8.650;2023-07-29T01:28:19;0.90;;;0.68;;
17866;SDS011;9059;49.934;8.650;2023-07-29T01:38:24;4.57;;;1.02;;
17866;SDS011;9059;49.934;8.650;2023-07-29T01:48:34;7.82;;;1.00;;
17866;SDS011;9059;49.934;8.650;2023-07-29T01:58:37;1.10;;;0.60;;
17866;SDS011;9059;49.934;8.650;2023-07-29T02:08:41;2.15;;;0.80;;
17866;SDS011;9059;49.934;8.650;2023-07-29T02:18:43;0.82;;;0.40;;
17866;SDS011;9059;49.934;8.650;2023-07-29T02:28:48;1.42;;;0.52;;
17866;SDS011;9059;49.934;8.650;2023-07-29T02:38:50;2.25;;;0.47;;
17866;SDS011;9059;49.934;8.650;2023-07-29T02:48:54;1.80;;;0.60;;
17866;SDS011;9059;49.934;8.650;2023-07-29T02:58:57;1.58;;;0.68;;
17866;SDS011;9059;49.934;8.650;2023-07-29T03:09:02;1.30;;;0.60;;
17866;SDS011;9059;49.934;8.650;2023-07-29T03:19:06;1.45;;;0.73;;
17866;SDS011;9059;49.934;8.650;2023-07-29T03:29:10;1.40;;;0.65;;
17866;SDS011;9059;49.934;8.650;2023-07-29T03:39:13;3.03;;;0.88;;
17866;SDS011;9059;49.934;8.650;2023-07-29T03:49:17;9.85;;;0.63;;
17866;SDS011;9059;49.934;8.650;2023-07-29T03:59:20;0.70;;;0.50;;
17866;SDS011;9059;49.934;8.650;2023-07-29T04:09:25;0.98;;;0.65;;
17866;SDS011;9059;49.934;8.650;2023-07-29T04:19:28;3.80;;;0.70;;
17866;SDS011;9059;49.934;8.650;2023-07-29T04:29:32;2.65;;;0.60;;
17866;SDS011;9059;49.934;8.650;2023-07-29T04:39:37;1.15;;;0.60;;
17866;SDS011;9059;49.934;8.650;2023-07-29T04:49:41;2.08;;;0.85;;
17866;SDS011;9059;49.934;8.650;2023-07-29T04:59:44;1.30;;;0.82;;
17866;SDS011;9059;49.934;8.650;2023-07-29T05:09:48;1.90;;;0.82;;
17866;SDS011;9059;49.934;8.650;2023-07-29T05:19:51;2.22;;;0.93;;
17866;SDS011;9059;49.934;8.650;2023-07-29T05:29:55;5.35;;;1.33;;
17866;SDS011;9059;49.934;8.650;2023-07-29T05:39:58;4.70;;;0.90;;
17866;SDS011;9059;49.934;8.650;2023-07-29T05:50:03;4.78;;;1.00;;
17866;SDS011;9059;49.934;8.650;2023-07-29T06:00:07;5.63;;;1.33;;
17866;SDS011;9059;49.934;8.650;2023-07-29T06:10:13;7.82;;;0.88;;
17866;SDS011;9059;49.934;8.650;2023-07-29T06:20:18;3.38;;;0.90;;
17866;SDS011;9059;49.934;8.650;2023-07-29T06:30:22;4.60;;;1.00;;
17866;SDS011;9059;49.934;8.650;2023-07-29T06:40:25;1.67;;;0.90;;
17866;SDS011;9059;49.934;8.650;2023-07-29T06:50:29;2.15;;;1.20;;
17866;SDS011;9059;49.934;8.650;2023-07-29T07:00:32;4.40;;;1.40;;
17866;SDS011;9059;49.934;8.650;2023-07-29T07:10:36;4.10;;;1.60;;
17866;SDS011;9059;49.934;8.650;2023-07-29T07:20:39;3.60;;;1.63;;
17866;SDS011;9059;49.934;8.650;2023-07-29T07:30:43;3.05;;;1.60;;
17866;SDS011;9059;49.934;8.650;2023-07-29T07:40:51;1.60;;;1.10;;
17866;SDS011;9059;49.934;8.650;2023-07-29T07:50:57;1.20;;;0.80;;
17866;SDS011;9059;49.934;8.650;2023-07-29T08:01:03;1.05;;;0.80;;
17866;SDS011;9059;49.934;8.650;2023-07-29T08:11:07;2.08;;;0.57;;
17866;SDS011;9059;49.934;8.650;2023-07-29T08:21:10;2.70;;;0.93;;
17866;SDS011;9059;49.934;8.650;2023-07-29T08:31:14;0.73;;;0.52;;
17866;SDS011;9059;49.934;8.650;2023-07-29T08:41:19;3.10;;;0.40;;
17866;SDS011;9059;49.934;8.650;2023-07-29T08:51:24;2.20;;;0.70;;
17866;SDS011;9059;49.934;8.650;2023-07-29T09:01:27;1.10;;;0.70;;
17866;SDS011;9059;49.934;8.650;2023-07-29T09:11:33;1.38;;;0.63;;
17866;SDS011;9059;49.934;8.650;2023-07-29T09:21:38;2.15;;;0.98;;
17866;SDS011;9059;49.934;8.650;2023-07-29T09:31:42;1.40;;;0.70;;
17866;SDS011;9059;49.934;8.650;2023-07-29T09:41:47;2.08;;;0.70;;
17866;SDS011;9059;49.934;8.650;2023-07-29T09:51:52;1.20;;;0.50;;
17866;SDS011;9059;49.934;8.650;2023-07-29T10:01:58;1.77;;;0.70;;
17866;SDS011;9059;49.934;8.650;2023-07-29T10:12:02;0.73;;;0.57;;
17866;SDS011;9059;49.934;8.650;2023-07-29T10:22:07;4.18;;;0.73;;
17866;SDS011;9059;49.934;8.650;2023-07-29T10:32:11;3.08;;;0.90;;
17866;SDS011;9059;49.934;8.650;2023-07-29T10:42:14;0.65;;;0.40;;
17866;SDS011;9059;49.934;8.650;2023-07-29T10:52:27;1.83;;;0.60;;
17866;SDS011;9059;49.934;8.650;2023-07-29T11:02:32;1.52;;;0.80;;
17866;SDS011;9059;49.934;8.650;2023-07-29T11:12:37;0.80;;;0.60;;
17866;SDS011;9059;49.934;8.650;2023-07-29T11:22:42;1.55;;;0.77;;
17866;SDS011;9059;49.934;8.650;2023-07-29T11:32:46;1.63;;;0.90;;
17866;SDS011;9059;49.934;8.650;2023-07-29T11:42:50;2.13;;;0.82;;
17866;SDS011;9059;49.934;8.650;2023-07-29T11:52:55;1.15;;;0.88;;
17866;SDS011;9059;49.934;8.650;2023-07-29T12:02:58;0.90;;;0.80;;
17866;SDS011;9059;49.934;8.650;2023-07-29T12:13:02;1.40;;;0.77;;
17866;SDS011;9059;49.934;8.650;2023-07-29T12:23:05;3.88;;;1.10;;
17866;SDS011;9059;49.934;8.650;2023-07-29T12:33:10;1.15;;;0.82;;
17866;SDS011;9059;49.934;8.650;2023-07-29T12:43:13;0.88;;;0.60;;
17866;SDS011;9059;49.934;8.650;2023-07-29T12:53:17;1.13;;;0.70;;
17866;SDS011;9059;49.934;8.650;2023-07-29T13:03:20;1.08;;;0.82;;
17866;SDS011;9059;49.934;8.650;2023-07-29T13:13:24;1.20;;;0.80;;
17866;SDS011;9059;49.934;8.650;2023-07-29T13:23:27;1.30;;;0.85;;
17866;SDS011;9059;49.934;8.650;2023-07-29T13:33:32;1.08;;;0.70;;
17866;SDS011;9059;49.934;8.650;2023-07-29T13:43:35;1.95;;;0.70;;
17866;SDS011;9059;49.934;8.650;2023-07-29T13:53:39;0.65;;;0.50;;
17866;SDS011;9059;49.934;8.650;2023-07-29T14:03:42;3.67;;;0.80;;
17866;SDS011;9059;49.934;8.650;2023-07-29T14:13:46;1.50;;;0.70;;
17866;SDS011;9059;49.934;8.650;2023-07-29T14:23:49;1.67;;;0.70;;
17866;SDS011;9059;49.934;8.650;2023-07-29T14:33:53;1.98;;;0.90;;
17866;SDS011;9059;49.934;8.650;2023-07-29T14:43:57;0.85;;;0.60;;
17866;SDS011;9059;49.934;8.650;2023-07-29T14:54:01;1.40;;;0.60;;
17866;SDS011;9059;49.934;8.650;2023-07-29T15:04:04;2.25;;;0.88;;
17866;SDS011;9059;49.934;8.650;2023-07-29T15:14:08;0.93;;;0.82;;
17866;SDS011;9059;49.934;8.650;2023-07-29T15:24:11;1.20;;;0.75;;
17866;SDS011;9059;49.934;8.650;2023-07-29T15:34:15;2.92;;;1.00;;
17866;SDS011;9059;49.934;8.650;2023-07-29T15:44:18;1.00;;;0.70;;
17866;SDS011;9059;49.934;8.650;2023-07-29T15:54:22;1.10;;;0.80;;
17866;SDS011;9059;49.934;8.650;2023-07-29T16:04:25;1.30;;;0.90;;
17866;SDS011;9059;49.934;8.650;2023-07-29T16:14:29;6.93;;;0.88;;
17866;SDS011;9059;49.934;8.650;2023-07-29T16:24:32;0.90;;;0.73;;
17866;SDS011;9059;49.934;8.650;2023-07-29T16:34:36;1.67;;;0.90;;
17866;SDS011;9059;49.934;8.650;2023-07-29T16:44:39;1.08;;;0.80;;
17866;SDS011;9059;49.934;8.650;2023-07-29T16:54:43;1.52;;;0.90;;
17866;SDS011;9059;49.934;8.650;2023-07-29T17:04:46;4.13;;;0.98;;
17866;SDS011;9059;49.934;8.650;2023-07-29T17:14:50;0.93;;;0.82;;
17866;SDS011;9059;49.934;8.650;2023-07-29T17:24:53;1.45;;;1.02;;
17866;SDS011;9059;49.934;8.650;2023-07-29T17:34:57;1.55;;;0.85;;
17866;SDS011;9059;49.934;8.650;2023-07-29T17:45:00;1.75;;;1.23;;
17866;SDS011;9059;49.934;8.650;2023-07-29T17:55:04;1.67;;;1.05;;
17866;SDS011;9059;49.934;8.650;2023-07-29T18:05:07;1.70;;;1.17;;
17866;SDS011;9059;49.934;8.650;2023-07-29T18:15:11;1.60;;;1.00;;
17866;SDS011;9059;49.934;8.650;2023-07-29T18:25:14;1.77;;;1.00;;
17866;SDS011;9059;49.934;8.650;2023-07-29T18:35:18;1.70;;;0.82;;
17866;SDS011;9059;49.934;8.650;2023-07-29T18:45:21;1.25;;;0.90;;
17866;SDS011;9059;49.934;8.650;2023-07-29T18:55:25;1.38;;;0.82;;
17866;SDS011;9059;49.934;8.650;2023-07-29T19:05:30;1.60;;;1.00;;
17866;SDS011;9059;49.934;8.650;2023-07-29T19:15:34;4.07;;;1.27;;
17866;SDS011;9059;49.934;8.650;2023-07-29T19:25:43;1.52;;;0.80;;
17866;SDS011;9059;49.934;8.650;2023-07-29T19:35:53;1.65;;;1.00;;
17866;SDS011;9059;49.934;8.650;2023-07-29T19:45:57;2.25;;;1.20;;
17866;SDS011;9059;49.934;8.650;2023-07-29T19:56:21;3.70;;;1.10;;
17866;SDS011;9059;49.934;8.650;2023-07-29T20:06:24;2.97;;;1.20;;
17866;SDS011;9059;49.934;8.650;2023-07-29T20:16:30;1.75;;;1.30;;
17866;SDS011;9059;49.934;8.650;2023-07-29T20:26:34;1.98;;;1.27;;
17866;SDS011;9059;49.934;8.650;2023-07-29T20:36:38;4.22;;;1.42;;
17866;SDS011;9059;49.934;8.650;2023-07-29T20:46:41;4.03;;;1.40;;
17866;SDS011;9059;49.934;8.650;2023-07-29T20:56:45;5.13;;;1.27;;
17866;SDS011;9059;49.934;8.650;2023-07-29T21:06:48;2.00;;;1.38;;
17866;SDS011;9059;49.934;8.650;2023-07-29T21:16:52;5.28;;;1.05;;
17866;SDS011;9059;49.934;8.650;2023-07-29T21:26:55;3.67;;;1.42;;
17866;SDS011;9059;49.934;8.650;2023-07-29T21:36:59;1.70;;;1.27;;
17866;SDS011;9059;49.934;8.650;2023-07-29T21:47:06;5.13;;;1.25;;
17866;SDS011;9059;49.934;8.650;2023-07-29T21:57:10;4.47;;;1.40;;
17866;SDS011;9059;49.934;8.650;2023-07-29T22:07:13;3.33;;;1.45;;
17866;SDS011;9059;49.934;8.650;2023-07-29T22:17:18;4.45;;;1.52;;
17866;SDS011;9059;49.934;8.650;2023-07-29T22:27:20;2.65;;;1.40;;
17866;SDS011;9059;49.934;8.650;2023-07-29T22:37:25;1.73;;;1.08;;
17866;SDS011;9059;49.934;8.650;2023-07-29T22:47:27;2.60;;;1.42;;
17866;SDS011;9059;49.934;8.650;2023-07-29T22:57:32;4.25;;;1.40;;
17866;SDS011;9059;49.934;8.650;2023-07-29T23:07:34;2.60;;;1.33;;
17866;SDS011;9059;49.934;8.650;2023-07-29T23:17:39;2.70;;;1.48;;
17866;SDS011;9059;49.934;8.650;2023-07-29T23:27:41;1.70;;;1.13;;
17866;SDS011;9059;49.934;8.650;2023-07-29T23:37:46;2.30;;;1.15;;
17866;SDS011;9059;49.934;8.650;2023-07-29T23:47:51;2.80;;;1.40;;
17866;SDS011;9059;49.934;8.650;2023-07-29T23:57:56;2.15;;;1.25;;
